createdAt,value
2023-02-15T00:02:01.311Z,68.00
2023-02-15T00:04:47.109Z,67.43
2023-02-15T00:07:19.375Z,63.42
2023-02-15T00:09:47.642Z,64.82
2023-02-15T00:12:14.805Z,61.63
2023-02-15T00:14:41.259Z,64.22
2023-02-15T00:17:07.638Z,66.30
2023-02-15T00:19:34.402Z,64.18
2023-02-15T00:22:01.264Z,67.75
2023-02-15T00:24:27.794Z,66.70
2023-02-15T00:26:54.249Z,65.43
2023-02-15T00:29:21.207Z,71.70
2023-02-15T00:31:47.910Z,64.90
2023-02-15T00:34:26.334Z,63.65
2023-02-15T00:36:53.093Z,65.20
2023-02-15T00:39:19.908Z,69.07
2023-02-15T00:41:47.778Z,69.57
2023-02-15T00:44:14.957Z,66.38
2023-02-15T00:46:41.501Z,70.68
2023-02-15T00:49:07.962Z,69.88
2023-02-15T00:51:34.410Z,66.18
2023-02-15T00:54:00.915Z,72.05
2023-02-15T00:56:29.259Z,70.65
2023-02-15T00:58:55.867Z,66.88
2023-02-15T01:01:22.805Z,63.88
2023-02-15T01:03:49.368Z,62.05
2023-02-15T01:06:17.588Z,65.68
2023-02-15T01:08:45.148Z,67.05
2023-02-15T01:11:14.412Z,64.22
2023-02-15T01:13:41.866Z,71.10
2023-02-15T01:16:08.930Z,67.28
2023-02-15T01:18:36.683Z,65.78
2023-02-15T01:21:18.831Z,69.95
2023-02-15T01:23:45.296Z,65.03
2023-02-15T01:26:11.818Z,69.20
2023-02-15T01:28:38.382Z,67.80
2023-02-15T01:31:12.924Z,66.43
2023-02-15T01:33:39.830Z,64.90
2023-02-15T01:36:06.700Z,64.82
2023-02-15T01:38:34.203Z,63.90
2023-02-15T01:41:19.274Z,67.75
2023-02-15T01:44:00.622Z,66.28
2023-02-15T01:46:41.495Z,64.13
2023-02-15T01:49:17.664Z,65.82
2023-02-15T01:51:48.387Z,64.40
2023-02-15T01:54:32.464Z,65.10
2023-02-15T01:57:06.140Z,65.68
2023-02-15T01:59:34.612Z,65.90
2023-02-15T02:02:03.225Z,65.15
2023-02-15T02:04:40.667Z,63.13
2023-02-15T02:16:22.838Z,67.22
2023-02-15T02:19:23.307Z,67.47
2023-02-15T02:24:53.760Z,59.90
2023-02-15T02:27:42.137Z,60.80
2023-02-15T02:30:36.291Z,67.10
2023-02-15T02:36:53.748Z,64.30
2023-02-15T02:39:40.233Z,62.80
2023-02-15T02:42:42.226Z,67.88
2023-02-15T02:45:22.872Z,63.67
2023-02-15T02:48:10.599Z,63.67
2023-02-15T02:50:40.894Z,65.72
2023-02-15T02:55:55.119Z,63.05
2023-02-15T02:58:31.463Z,62.63
2023-02-15T03:01:07.116Z,59.83
2023-02-15T03:03:39.082Z,62.42
2023-02-15T03:06:29.784Z,65.18
2023-02-15T03:09:02.667Z,63.17
2023-02-15T03:11:29.685Z,62.28
2023-02-15T03:13:56.217Z,63.00
2023-02-15T03:16:29.488Z,62.97
2023-02-15T03:19:06.819Z,66.43
2023-02-15T03:22:04.455Z,68.28
2023-02-15T03:24:42.657Z,66.15
2023-02-15T03:27:18.603Z,64.78
2023-02-15T03:29:53.185Z,65.45
2023-02-15T03:32:20.845Z,62.22
2023-02-15T03:34:47.447Z,64.45
2023-02-15T03:37:16.806Z,69.18
2023-02-15T03:39:50.346Z,68.07
2023-02-15T03:42:40.283Z,61.95
2023-02-15T03:45:12.577Z,61.90
2023-02-15T03:47:44.935Z,61.83
2023-02-15T03:50:37.021Z,59.72
2023-02-15T03:53:06.120Z,62.13
2023-02-15T03:55:34.132Z,66.38
2023-02-15T03:58:19.285Z,62.92
2023-02-15T04:01:24.891Z,61.97
2023-02-15T04:04:10.994Z,62.97
2023-02-15T04:06:37.427Z,66.10
2023-02-15T04:09:23.052Z,65.20
2023-02-15T04:11:49.603Z,65.47
2023-02-15T04:14:34.871Z,65.43
2023-02-15T04:17:01.370Z,62.78
2023-02-15T04:19:46.560Z,67.18
2023-02-15T04:22:31.400Z,63.60
2023-02-15T04:25:16.174Z,69.72
2023-02-15T04:27:45.963Z,68.90
2023-02-15T04:30:14.973Z,65.78
2023-02-15T04:32:41.875Z,70.47
2023-02-15T04:35:09.076Z,71.93
2023-02-15T04:37:35.730Z,68.43
2023-02-15T04:40:03.586Z,67.40
2023-02-15T04:42:29.986Z,71.13
2023-02-15T04:44:56.459Z,71.07
2023-02-15T04:47:22.923Z,71.85
2023-02-15T04:49:49.439Z,67.93
2023-02-15T04:52:18.092Z,70.18
2023-02-15T04:54:45.682Z,66.68
2023-02-15T04:57:14.031Z,64.32
2023-02-15T04:59:40.753Z,67.38
2023-02-15T05:02:07.430Z,66.40
2023-02-15T05:04:33.915Z,69.82
2023-02-15T05:07:00.423Z,71.80
2023-02-15T05:09:26.862Z,75.13
2023-02-15T05:11:53.287Z,68.25
2023-02-15T05:14:19.827Z,69.80
2023-02-15T05:16:46.347Z,66.53
2023-02-15T05:19:12.873Z,65.72
2023-02-15T05:21:39.473Z,68.18
2023-02-15T05:24:26.135Z,66.75
2023-02-15T05:27:10.906Z,64.53
2023-02-15T05:29:37.350Z,67.07
2023-02-15T05:32:05.187Z,64.15
2023-02-15T05:34:31.920Z,64.95
2023-02-15T05:36:58.357Z,64.55
2023-02-15T05:39:24.808Z,65.20
2023-02-15T05:41:51.745Z,62.28
2023-02-15T05:44:18.293Z,68.53
2023-02-15T05:46:44.726Z,64.85
2023-02-15T05:49:11.172Z,61.38
2023-02-15T05:51:37.561Z,63.50
2023-02-15T05:54:04.057Z,65.45
2023-02-15T05:56:30.546Z,66.75
2023-02-15T05:58:56.955Z,66.68
2023-02-15T06:01:23.942Z,66.68
2023-02-15T06:03:50.821Z,69.20
2023-02-15T06:06:17.562Z,66.35
2023-02-15T06:08:44.762Z,66.50
2023-02-15T06:11:11.798Z,72.15
2023-02-15T06:13:39.061Z,67.18
2023-02-15T06:16:06.932Z,68.70
2023-02-15T06:18:33.970Z,66.65
2023-02-15T06:21:00.912Z,69.05
2023-02-15T06:23:27.353Z,64.07
2023-02-15T06:25:53.801Z,68.00
2023-02-15T06:28:20.191Z,63.60
2023-02-15T06:30:47.496Z,64.00
2023-02-15T06:33:13.999Z,67.55
2023-02-15T06:35:40.377Z,63.63
2023-02-15T06:38:06.795Z,62.47
2023-02-15T06:40:33.230Z,63.22
2023-02-15T06:42:59.633Z,66.57
2023-02-15T06:45:26.051Z,65.03
2023-02-15T06:47:52.509Z,66.20
2023-02-15T06:50:19.091Z,64.05
2023-02-15T06:52:45.510Z,65.78
2023-02-15T06:55:11.953Z,69.55
2023-02-15T06:57:38.429Z,65.70
2023-02-15T07:00:06.061Z,63.33
2023-02-15T07:02:33.024Z,66.85
2023-02-15T07:04:59.588Z,63.25
2023-02-15T07:07:26.318Z,64.03
2023-02-15T07:09:52.707Z,64.65
2023-02-15T07:12:37.619Z,68.03
2023-02-15T07:15:05.339Z,61.17
2023-02-15T07:17:35.918Z,63.55
2023-02-15T07:20:08.709Z,64.18
2023-02-15T07:22:37.079Z,67.30
2023-02-15T07:25:10.127Z,62.67
2023-02-15T07:27:36.641Z,67.85
2023-02-15T07:30:04.065Z,65.45
2023-02-15T07:32:31.982Z,62.55
2023-02-15T07:34:59.084Z,63.10
2023-02-15T07:37:26.037Z,61.30
2023-02-15T07:39:52.504Z,62.20
2023-02-15T07:42:20.668Z,64.75
2023-02-15T07:44:47.492Z,65.82
2023-02-15T07:47:14.011Z,64.95
2023-02-15T07:49:40.405Z,62.03
2023-02-15T07:52:07.015Z,61.38
2023-02-15T07:54:33.375Z,63.75
2023-02-15T07:57:01.981Z,58.80
2023-02-15T07:59:28.448Z,62.80
2023-02-15T08:01:57.182Z,66.68
2023-02-15T08:04:24.924Z,62.30
2023-02-15T08:06:54.727Z,62.42
2023-02-15T08:09:21.821Z,62.90
2023-02-15T08:11:49.195Z,62.10
2023-02-15T08:14:18.650Z,63.30
2023-02-15T08:16:53.588Z,66.28
2023-02-15T08:19:23.499Z,71.63
2023-02-15T08:21:55.514Z,68.55
2023-02-15T08:24:23.479Z,60.80
2023-02-15T08:26:51.092Z,68.78
2023-02-15T08:29:20.345Z,65.28
2023-02-15T08:31:47.379Z,67.38
2023-02-15T08:34:16.933Z,66.90
2023-02-15T08:36:46.010Z,68.72
2023-02-15T08:39:13.765Z,67.40
2023-02-15T08:41:43.632Z,67.35
2023-02-15T08:44:11.628Z,70.00
2023-02-15T08:46:40.936Z,64.75
2023-02-15T08:49:07.509Z,71.97
2023-02-15T08:51:36.535Z,71.63
2023-02-15T08:54:06.609Z,72.43
2023-02-15T08:56:35.966Z,67.75
2023-02-15T08:59:02.868Z,68.33
2023-02-15T09:01:32.064Z,67.97
2023-02-15T09:04:02.584Z,71.03
2023-02-15T09:06:29.758Z,69.00
2023-02-15T09:08:57.194Z,69.03
2023-02-15T09:11:26.352Z,65.82
2023-02-15T09:13:55.525Z,64.07
2023-02-15T09:16:24.352Z,63.90
2023-02-15T09:18:52.189Z,59.97
2023-02-15T09:21:23.549Z,59.08
2023-02-15T09:23:51.682Z,58.33
2023-02-15T09:26:22.038Z,58.25
2023-02-15T09:28:52.574Z,53.53
2023-02-15T09:31:22.051Z,65.07
2023-02-15T09:33:49.968Z,56.17
2023-02-15T09:36:25.054Z,54.55
2023-02-15T09:39:08.558Z,53.67
2023-02-15T09:41:53.379Z,55.65
2023-02-15T09:44:51.835Z,55.10
2023-02-15T09:47:40.429Z,53.33
2023-02-15T09:50:12.535Z,61.58
2023-02-15T09:52:57.759Z,59.25
2023-02-15T09:55:42.341Z,60.80
2023-02-15T09:58:17.385Z,64.05
2023-02-15T10:01:20.659Z,57.70
2023-02-15T10:03:56.429Z,54.15
2023-02-15T10:06:25.854Z,60.08
2023-02-15T10:09:01.505Z,61.17
2023-02-15T10:12:05.428Z,60.58
2023-02-15T10:14:53.457Z,56.95
2023-02-15T10:17:35.398Z,61.22
2023-02-15T10:20:29.948Z,57.50
2023-02-15T10:23:20.984Z,57.30
2023-02-15T10:25:50.077Z,58.05
2023-02-15T10:28:24.140Z,62.78
2023-02-15T10:30:52.895Z,60.58
2023-02-15T10:33:40.071Z,58.97
2023-02-15T10:36:31.492Z,64.35
2023-02-15T10:39:26.810Z,62.40
2023-02-15T10:42:07.267Z,59.15
2023-02-15T10:44:53.499Z,64.75
2023-02-15T10:47:44.346Z,61.05
2023-02-15T10:50:35.688Z,63.65
2023-02-15T10:53:39.765Z,59.95
2023-02-15T10:56:12.206Z,63.45
2023-02-15T10:58:50.488Z,63.90
2023-02-15T11:01:24.800Z,68.97
2023-02-15T11:04:24.730Z,60.50
2023-02-15T11:06:57.180Z,62.58
2023-02-15T11:09:30.728Z,61.33
2023-02-15T11:12:00.567Z,60.33
2023-02-15T11:14:39.572Z,60.58
2023-02-15T11:17:34.527Z,56.88
2023-02-15T11:20:34.543Z,58.33
2023-02-15T11:23:02.516Z,64.80
2023-02-15T11:25:34.929Z,55.17
2023-02-15T11:28:06.179Z,59.95
2023-02-15T11:30:56.494Z,59.55
2023-02-15T11:33:40.802Z,57.28
2023-02-15T11:36:14.372Z,57.22
2023-02-15T11:38:44.331Z,54.47
2023-02-15T11:41:22.561Z,53.50
2023-02-15T11:44:06.953Z,55.03
2023-02-15T11:46:33.526Z,53.88
2023-02-15T11:49:00.033Z,53.95
2023-02-15T11:51:28.838Z,55.95
2023-02-15T11:53:55.920Z,53.78
2023-02-15T11:56:27.202Z,52.97
2023-02-15T11:59:02.537Z,54.20
2023-02-15T12:01:38.281Z,53.03
2023-02-15T12:04:26.090Z,48.95
2023-02-15T12:07:02.310Z,51.53
2023-02-15T12:09:49.205Z,50.30
2023-02-15T12:12:22.643Z,49.95
2023-02-15T12:14:51.918Z,50.05
2023-02-15T12:17:21.652Z,46.70
2023-02-15T12:19:51.548Z,48.22
2023-02-15T12:22:31.378Z,50.88
2023-02-15T12:25:01.352Z,49.40
2023-02-15T12:27:31.372Z,47.67
2023-02-15T12:30:05.281Z,47.05
2023-02-15T12:32:37.166Z,46.35
2023-02-15T12:35:15.623Z,48.70
2023-02-15T12:37:54.839Z,47.40
2023-02-15T12:40:30.903Z,45.78
2023-02-15T12:42:58.716Z,46.72
2023-02-15T12:45:31.097Z,47.92
2023-02-15T12:48:18.922Z,47.10
2023-02-15T12:50:58.025Z,46.20
2023-02-15T12:53:36.024Z,47.45
2023-02-15T12:56:07.648Z,47.38
2023-02-15T12:58:39.457Z,47.53
2023-02-15T13:01:17.053Z,46.38
2023-02-15T13:03:59.101Z,47.33
2023-02-15T13:06:27.408Z,48.55
2023-02-15T13:08:56.837Z,44.60
2023-02-15T13:11:36.122Z,46.20
2023-02-15T13:14:24.162Z,44.50
2023-02-15T13:16:54.225Z,44.40
2023-02-15T13:19:30.314Z,47.25
2023-02-15T13:21:59.060Z,45.60
2023-02-15T13:24:34.388Z,47.35
2023-02-15T13:27:14.512Z,45.80
2023-02-15T13:29:55.294Z,47.00
2023-02-15T13:32:32.065Z,45.90
2023-02-15T13:35:02.043Z,47.03
2023-02-15T13:37:43.524Z,47.33
2023-02-15T13:40:33.978Z,46.92
2023-02-15T13:43:05.117Z,52.63
2023-02-15T13:45:38.312Z,50.88
2023-02-15T13:48:20.086Z,46.72
2023-02-15T13:51:14.608Z,45.65
2023-02-15T13:53:59.884Z,47.20
2023-02-15T13:56:35.196Z,45.55
2023-02-15T13:59:01.564Z,46.83
2023-02-15T14:01:44.531Z,46.85
2023-02-15T14:04:20.113Z,48.03
2023-02-15T14:07:05.617Z,48.60
2023-02-15T14:09:40.768Z,49.92
2023-02-15T14:12:47.796Z,47.72
2023-02-15T14:15:29.357Z,45.45
2023-02-15T14:18:13.410Z,43.42
2023-02-15T14:20:51.134Z,47.95
2023-02-15T14:23:37.012Z,46.90
2023-02-15T14:26:26.998Z,46.80
2023-02-15T14:29:25.389Z,46.35
2023-02-15T14:31:57.241Z,48.33
2023-02-15T14:34:37.575Z,44.88
2023-02-15T14:39:49.558Z,44.72
2023-02-15T14:42:36.191Z,46.72
2023-02-15T14:45:27.324Z,45.30
2023-02-15T14:48:08.794Z,46.13
2023-02-15T14:50:42.736Z,44.15
2023-02-15T14:53:43.003Z,46.13
2023-02-15T14:56:14.536Z,45.45
2023-02-15T14:58:53.271Z,43.75
2023-02-15T15:01:31.513Z,47.72
2023-02-15T15:04:09.221Z,44.17
2023-02-15T15:06:42.521Z,44.35
2023-02-15T15:09:27.013Z,44.15
2023-02-15T15:11:55.424Z,43.15
2023-02-15T15:14:43.820Z,49.70
2023-02-15T15:17:38.946Z,44.85
2023-02-15T15:20:32.971Z,44.90
2023-02-15T15:23:19.116Z,46.17
2023-02-15T15:25:52.738Z,44.58
2023-02-15T15:28:48.490Z,46.58
2023-02-15T15:31:37.220Z,46.70
2023-02-15T15:34:39.197Z,43.90
2023-02-15T15:37:05.974Z,42.78
2023-02-15T15:39:47.631Z,43.28
2023-02-15T15:43:34.089Z,41.75
2023-02-15T15:46:35.481Z,42.63
2023-02-15T15:49:08.702Z,40.63
2023-02-15T15:51:36.444Z,40.85
2023-02-15T15:54:04.845Z,43.42
2023-02-15T15:56:37.990Z,45.88
2023-02-15T15:59:18.072Z,45.17
2023-02-15T16:01:46.686Z,41.67
2023-02-15T16:04:30.890Z,40.67
2023-02-15T16:06:58.718Z,42.60
2023-02-15T16:09:28.208Z,40.97
2023-02-15T16:12:03.521Z,41.92
2023-02-15T16:14:38.088Z,40.47
2023-02-15T16:17:09.527Z,40.58
2023-02-15T16:19:39.085Z,41.00
2023-02-15T16:22:21.821Z,41.75
2023-02-15T16:25:14.239Z,42.92
2023-02-15T16:27:45.297Z,41.33
2023-02-15T16:30:40.220Z,43.90
2023-02-15T16:33:12.437Z,38.25
2023-02-15T16:35:41.637Z,40.10
2023-02-15T16:38:12.416Z,40.53
2023-02-15T16:40:58.664Z,38.25
2023-02-15T16:43:31.660Z,39.53
2023-02-15T16:46:07.224Z,41.85
2023-02-15T16:48:40.082Z,38.88
2023-02-15T16:51:06.909Z,40.85
2023-02-15T16:53:33.430Z,42.38
2023-02-15T16:56:03.117Z,42.90
2023-02-15T16:58:37.234Z,43.53
2023-02-15T17:01:07.209Z,40.38
2023-02-15T17:03:33.884Z,39.72
2023-02-15T17:06:03.875Z,39.97
2023-02-15T17:08:42.993Z,43.20
2023-02-15T17:11:33.632Z,44.63
2023-02-15T17:14:12.119Z,43.45
2023-02-15T17:16:50.031Z,43.97
2023-02-15T17:19:23.850Z,40.63
2023-02-15T17:21:54.122Z,42.33
2023-02-15T17:27:22.038Z,36.53
2023-02-15T17:29:54.985Z,43.42
2023-02-15T17:32:29.995Z,41.45
2023-02-15T17:35:22.474Z,39.92
2023-02-15T17:37:50.203Z,41.85
2023-02-15T17:40:25.643Z,44.33
2023-02-15T17:42:52.207Z,46.80
2023-02-15T17:45:19.500Z,44.85
2023-02-15T17:47:48.089Z,48.17
2023-02-15T17:50:23.477Z,46.90
2023-02-15T17:52:51.408Z,43.70
2023-02-15T17:55:35.482Z,44.60
2023-02-15T17:58:04.704Z,46.10
2023-02-15T18:00:51.025Z,43.55
2023-02-15T18:03:36.355Z,42.38
2023-02-15T18:06:21.724Z,41.13
2023-02-15T18:09:06.650Z,36.30
2023-02-15T18:11:38.831Z,41.30
2023-02-15T18:14:10.596Z,43.75
2023-02-15T18:16:41.677Z,45.30
2023-02-15T18:19:14.955Z,46.05
2023-02-15T18:21:41.495Z,44.75
2023-02-15T18:24:15.958Z,46.42
2023-02-15T18:26:42.492Z,44.40
2023-02-15T18:29:09.129Z,52.88
2023-02-15T18:31:35.784Z,47.38
2023-02-15T18:34:03.140Z,45.80
2023-02-15T18:36:32.799Z,47.55
2023-02-15T18:39:03.790Z,47.13
2023-02-15T18:41:32.216Z,46.38
2023-02-15T18:43:58.698Z,46.55
2023-02-15T18:46:25.084Z,45.95
2023-02-15T18:48:51.514Z,46.25
2023-02-15T18:51:23.493Z,45.78
2023-02-15T18:53:53.697Z,46.90
2023-02-15T18:58:49.132Z,43.28
2023-02-15T19:01:18.727Z,44.97
2023-02-15T19:03:47.615Z,46.35
2023-02-15T19:06:15.949Z,45.05
2023-02-15T19:08:45.618Z,49.00
2023-02-15T19:11:18.604Z,52.25
2023-02-15T19:13:48.720Z,50.35
2023-02-15T19:16:27.489Z,46.95
2023-02-15T19:18:54.116Z,47.25
2023-02-15T19:21:20.938Z,46.58
2023-02-15T19:23:53.695Z,49.22
2023-02-15T19:26:20.445Z,49.53
2023-02-15T19:28:47.049Z,48.78
2023-02-15T19:31:13.755Z,48.72
2023-02-15T19:33:40.936Z,46.95
2023-02-15T19:36:17.733Z,48.20
2023-02-15T19:38:49.089Z,48.85
2023-02-15T19:41:23.114Z,48.95
2023-02-15T19:43:55.157Z,54.65
2023-02-15T19:46:23.336Z,52.65
2023-02-15T19:48:51.046Z,50.85
2023-02-15T19:51:18.651Z,48.88
2023-02-15T19:53:47.817Z,50.40
2023-02-15T19:56:20.372Z,47.40
2023-02-15T19:58:48.554Z,48.58
2023-02-15T20:01:16.430Z,50.07
2023-02-15T20:03:43.653Z,49.22
2023-02-15T20:06:14.984Z,47.95
2023-02-15T20:08:42.524Z,50.03
2023-02-15T20:11:13.502Z,48.83
2023-02-15T20:13:40.472Z,49.15
2023-02-15T20:16:08.321Z,48.88
2023-02-15T20:18:35.279Z,48.38
2023-02-15T20:21:03.122Z,46.97
2023-02-15T20:23:36.193Z,44.45
2023-02-15T20:26:14.032Z,49.85
2023-02-15T20:28:40.463Z,50.60
2023-02-15T20:31:09.208Z,49.53
2023-02-15T20:33:35.716Z,49.13
2023-02-15T20:36:02.264Z,46.65
2023-02-15T20:38:30.814Z,46.53
2023-02-15T20:41:28.512Z,48.38
2023-02-15T20:43:54.915Z,50.30
2023-02-15T20:46:21.350Z,51.13
2023-02-15T20:48:47.795Z,55.65
2023-02-15T20:51:18.708Z,55.60
2023-02-15T20:53:46.105Z,52.45
2023-02-15T20:56:21.200Z,49.95
2023-02-15T20:58:48.361Z,51.22
2023-02-15T21:01:14.806Z,58.80
2023-02-15T21:03:41.293Z,56.25
2023-02-15T21:06:12.765Z,54.40
2023-02-15T21:08:39.232Z,56.25
2023-02-15T21:11:05.988Z,54.60
2023-02-15T21:13:35.917Z,54.38
2023-02-15T21:16:02.805Z,53.92
2023-02-15T21:18:33.197Z,54.08
2023-02-15T21:21:06.064Z,57.22
2023-02-15T21:23:38.375Z,52.80
2023-02-15T21:26:05.568Z,54.85
2023-02-15T21:28:32.001Z,56.33
2023-02-15T21:30:59.094Z,58.13
2023-02-15T21:33:26.918Z,59.35
2023-02-15T21:35:56.445Z,55.58
2023-02-15T21:38:25.937Z,58.92
2023-02-15T21:40:52.503Z,61.08
2023-02-15T21:43:43.718Z,59.88
2023-02-15T21:46:32.062Z,64.78
2023-02-15T21:48:58.577Z,59.85
2023-02-15T21:51:43.537Z,60.00
2023-02-15T21:54:12.694Z,59.45
2023-02-15T21:56:41.274Z,57.40
2023-02-15T21:59:12.185Z,59.45
2023-02-15T22:01:41.374Z,60.85
2023-02-15T22:04:20.087Z,58.40
2023-02-15T22:06:46.624Z,61.25
2023-02-15T22:09:19.222Z,57.88
2023-02-15T22:11:46.504Z,57.33
2023-02-15T22:14:37.057Z,63.38
2023-02-15T22:17:30.792Z,62.05
2023-02-15T22:19:57.857Z,58.42
2023-02-15T22:22:24.506Z,55.45
2023-02-15T22:24:50.902Z,57.13
2023-02-15T22:27:23.080Z,56.03
2023-02-15T22:29:50.166Z,57.47
2023-02-15T22:32:23.006Z,52.45
2023-02-15T22:34:50.623Z,52.90
2023-02-15T22:37:17.157Z,56.90
2023-02-15T22:39:43.661Z,52.63
2023-02-15T22:42:27.922Z,54.42
2023-02-15T22:44:56.234Z,51.42
2023-02-15T22:47:29.007Z,52.85
2023-02-15T22:49:55.817Z,51.47
2023-02-15T22:52:22.313Z,51.80
2023-02-15T22:54:48.820Z,53.03
2023-02-15T22:57:25.374Z,48.10
2023-02-15T22:59:51.996Z,50.67
2023-02-15T23:02:18.355Z,48.08
2023-02-15T23:04:44.839Z,48.63
2023-02-15T23:07:16.573Z,48.30
2023-02-15T23:09:43.506Z,47.22
2023-02-15T23:12:26.996Z,48.03
2023-02-15T23:14:54.454Z,47.30
2023-02-15T23:17:21.842Z,44.78
2023-02-15T23:19:48.311Z,46.47
2023-02-15T23:22:16.745Z,44.83
2023-02-15T23:24:45.364Z,44.10
2023-02-15T23:27:35.987Z,45.15
2023-02-15T23:30:05.737Z,50.03
2023-02-15T23:32:32.652Z,46.15
2023-02-15T23:34:59.164Z,44.08
2023-02-15T23:37:25.658Z,45.50
2023-02-15T23:40:10.744Z,50.88
2023-02-15T23:42:37.345Z,49.03
2023-02-15T23:45:05.974Z,46.80
2023-02-15T23:47:52.788Z,46.45
2023-02-15T23:50:30.347Z,47.17
2023-02-15T23:52:57.590Z,48.47
2023-02-15T23:55:33.170Z,47.47
2023-02-15T23:57:59.696Z,46.08
